Time;durP1;ratioP1;P1;durP2;ratioP2;P2;SDS_P1;SDS_P2;PMS_P1;PMS_P2;Temp;Humidity;BMP_temperature;BMP_pressure;BME280_temperature;BME280_humidity;BME280_pressure;Samples;Min_cycle;Max_cycle;Signal;HPM_P1;HPM_P2
2024/01/03 00:00:48;;;;;;;;;;;8.60;99.90;;;;;;5118652;28;19944;-73
2024/01/03 00:03:15;;;;;;;;;;;8.50;99.90;;;;;;5119242;28;19957;-73
2024/01/03 00:05:41;;;;;;;;;;;8.50;99.90;;;;;;5118969;28;20426;-73
2024/01/03 00:08:11;;;;;;;;;;;8.40;99.90;;;;;;5118703;28;20394;-73
2024/01/03 00:10:48;;;;;;;;;;;8.40;99.90;;;;;;5110557;28;19908;-73
2024/01/03 00:13:32;;;;;;;;;;;8.30;99.90;;;;;;5113376;28;19911;-73
2024/01/03 00:16:00;;;;;;;;;;;8.20;99.90;;;;;;5117277;28;19911;-73
2024/01/03 00:18:29;;;;;;;;;;;8.20;99.90;;;;;;5118335;28;19968;-74
2024/01/03 00:20:56;;;;;;;;;;;8.10;99.90;;;;;;5116985;28;19990;-73
2024/01/03 00:23:22;;;;;;;;;;;8.00;99.90;;;;;;5116561;28;19954;-73
2024/01/03 00:25:48;;;;;;;;;;;7.90;99.90;;;;;;5118715;28;19904;-73
2024/01/03 00:28:13;;;;;;;;;;;7.90;99.90;;;;;;5118533;28;19957;-73
2024/01/03 00:30:39;;;;;;;;;;;7.80;99.90;;;;;;5118541;28;19915;-73
2024/01/03 00:33:05;;;;;;;;;;;7.70;99.90;;;;;;5117792;28;19904;-73
2024/01/03 00:35:31;;;;;;;;;;;7.60;99.90;;;;;;5118213;28;19915;-73
2024/01/03 00:37:57;;;;;;;;;;;7.60;99.90;;;;;;5117422;28;19912;-73
2024/01/03 00:40:32;;;;;;;;;;;7.50;99.90;;;;;;5116734;28;19907;-73
2024/01/03 00:42:57;;;;;;;;;;;7.50;99.90;;;;;;5118421;28;19912;-73
2024/01/03 00:45:23;;;;;;;;;;;7.50;99.90;;;;;;5115860;28;19910;-73
2024/01/03 00:47:48;;;;;;;;;;;7.40;99.90;;;;;;5116140;28;19903;-73
2024/01/03 00:50:14;;;;;;;;;;;7.30;99.90;;;;;;5118108;28;19904;-73
2024/01/03 00:52:40;;;;;;;;;;;7.30;99.90;;;;;;5103841;27;20363;-73
2024/01/03 00:55:08;;;;;;;;;;;7.30;99.90;;;;;;5116514;28;20268;-73
2024/01/03 00:57:34;;;;;;;;;;;7.30;99.90;;;;;;5116301;28;19930;-73
2024/01/03 00:59:59;;;;;;;;;;;7.30;99.90;;;;;;5117942;27;19908;-73
2024/01/03 01:02:25;;;;;;;;;;;7.30;99.90;;;;;;5117277;28;20387;-73
2024/01/03 01:04:50;;;;;;;;;;;7.30;99.90;;;;;;5117933;28;19952;-73
2024/01/03 01:07:16;;;;;;;;;;;7.30;99.90;;;;;;5115536;28;19910;-73
2024/01/03 01:09:41;;;;;;;;;;;7.30;99.90;;;;;;5116239;28;19910;-73
2024/01/03 01:12:07;;;;;;;;;;;7.40;99.90;;;;;;5117462;28;19998;-73
2024/01/03 01:14:33;;;;;;;;;;;7.40;99.90;;;;;;5116355;28;19995;-73
2024/01/03 01:16:58;;;;;;;;;;;7.30;99.90;;;;;;5117160;28;19911;-73
2024/01/03 01:19:24;;;;;;;;;;;7.40;99.90;;;;;;5116251;28;19908;-72
2024/01/03 01:21:49;;;;;;;;;;;7.40;99.90;;;;;;5117094;28;19904;-73
2024/01/03 01:24:15;;;;;;;;;;;7.40;99.90;;;;;;5117294;28;19903;-73
2024/01/03 01:26:40;;;;;;;;;;;7.40;99.90;;;;;;5116951;28;19998;-73
2024/01/03 01:29:06;;;;;;;;;;;7.50;99.90;;;;;;5116034;28;19962;-73
2024/01/03 01:31:31;;;;;;;;;;;7.50;99.90;;;;;;5116666;28;19911;-73
2024/01/03 01:33:57;;;;;;;;;;;7.50;99.90;;;;;;5117184;28;19904;-73
2024/01/03 01:36:22;;;;;;;;;;;7.50;99.90;;;;;;5116470;28;20283;-73
2024/01/03 01:38:48;;;;;;;;;;;7.50;99.90;;;;;;5117043;28;20307;-73
2024/01/03 01:41:13;;;;;;;;;;;7.50;99.90;;;;;;5115509;28;19998;-74
2024/01/03 01:43:39;;;;;;;;;;;7.40;99.90;;;;;;5116964;28;19955;-73
2024/01/03 01:46:04;;;;;;;;;;;7.40;99.90;;;;;;5114224;27;19926;-73
2024/01/03 01:48:30;;;;;;;;;;;7.40;99.90;;;;;;5117095;28;19911;-73
2024/01/03 01:50:56;;;;;;;;;;;7.30;99.90;;;;;;5116706;28;19939;-73
2024/01/03 01:53:21;;;;;;;;;;;7.30;99.90;;;;;;5116807;28;19953;-73
2024/01/03 01:55:48;;;;;;;;;;;7.20;99.90;;;;;;5116093;28;19915;-73
2024/01/03 01:58:14;;;;;;;;;;;7.20;99.90;;;;;;5116639;28;19910;-73
2024/01/03 02:00:40;;;;;;;;;;;7.10;99.90;;;;;;5116482;28;19959;-73
2024/01/03 02:03:07;;;;;;;;;;;7.10;99.90;;;;;;5116891;28;19911;-73
2024/01/03 02:05:34;;;;;;;;;;;7.00;99.90;;;;;;5115260;28;19952;-73
2024/01/03 02:08:00;;;;;;;;;;;7.00;99.90;;;;;;5116404;28;20418;-73
2024/01/03 02:10:26;;;;;;;;;;;6.90;99.90;;;;;;5115265;28;19929;-73
2024/01/03 02:12:51;;;;;;;;;;;7.00;99.90;;;;;;5114340;28;20272;-73
2024/01/03 02:15:17;;;;;;;;;;;7.00;99.90;;;;;;5114734;28;19911;-73
2024/01/03 02:17:43;;;;;;;;;;;7.00;99.90;;;;;;5116273;28;19930;-73
2024/01/03 02:20:08;;;;;;;;;;;7.00;99.90;;;;;;5114892;28;19908;-73
2024/01/03 02:22:34;;;;;;;;;;;7.00;99.90;;;;;;5116266;28;19903;-73
2024/01/03 02:24:59;;;;;;;;;;;7.00;99.90;;;;;;5116424;28;19960;-73
2024/01/03 02:27:25;;;;;;;;;;;7.10;99.90;;;;;;5116493;28;19908;-74
2024/01/03 02:29:50;;;;;;;;;;;7.10;99.90;;;;;;5115732;28;19972;-74
2024/01/03 02:32:16;;;;;;;;;;;7.00;99.90;;;;;;5116436;28;19968;-73
2024/01/03 02:34:41;;;;;;;;;;;7.00;99.90;;;;;;5114850;28;20709;-73
2024/01/03 02:37:08;;;;;;;;;;;7.00;99.90;;;;;;5115057;28;19908;-73
2024/01/03 02:39:34;;;;;;;;;;;6.90;99.90;;;;;;5115822;28;19908;-74
2024/01/03 02:41:59;;;;;;;;;;;6.90;99.90;;;;;;5116288;28;19911;-74
2024/01/03 02:44:27;;;;;;;;;;;6.90;99.90;;;;;;5116085;28;19904;-73
2024/01/03 02:46:53;;;;;;;;;;;6.90;99.90;;;;;;5112986;28;20006;-73
2024/01/03 02:49:19;;;;;;;;;;;6.80;99.90;;;;;;5114677;28;19904;-73
2024/01/03 02:51:44;;;;;;;;;;;6.70;99.90;;;;;;5114526;28;20299;-74
2024/01/03 02:54:10;;;;;;;;;;;6.70;99.90;;;;;;5115816;28;20025;-73
2024/01/03 02:56:39;;;;;;;;;;;6.70;99.90;;;;;;5116211;28;20641;-73
2024/01/03 02:59:04;;;;;;;;;;;6.80;99.90;;;;;;5112660;28;20788;-73
2024/01/03 03:01:30;;;;;;;;;;;6.80;99.90;;;;;;5114754;28;19953;-73
2024/01/03 03:03:55;;;;;;;;;;;6.90;99.90;;;;;;5114146;28;19903;-73
2024/01/03 03:06:21;;;;;;;;;;;6.90;99.90;;;;;;5114761;28;19908;-73
2024/01/03 03:08:46;;;;;;;;;;;6.90;99.90;;;;;;5115671;28;19972;-73
2024/01/03 03:11:12;;;;;;;;;;;7.00;99.90;;;;;;5115834;28;19904;-73
2024/01/03 03:13:38;;;;;;;;;;;7.00;99.90;;;;;;5115807;28;19904;-73
2024/01/03 03:16:05;;;;;;;;;;;7.00;99.90;;;;;;5116136;28;19911;-73
2024/01/03 03:18:30;;;;;;;;;;;7.00;99.90;;;;;;5115611;27;20391;-73
2024/01/03 03:20:56;;;;;;;;;;;6.90;99.90;;;;;;5114574;28;20304;-73
2024/01/03 03:23:21;;;;;;;;;;;6.90;99.90;;;;;;5115319;28;20280;-73
2024/01/03 03:25:47;;;;;;;;;;;6.90;99.90;;;;;;5119482;28;19907;-73
2024/01/03 03:28:12;;;;;;;;;;;6.90;99.90;;;;;;5118294;28;19903;-73
2024/01/03 03:30:38;;;;;;;;;;;6.90;99.90;;;;;;5119639;28;19911;-73
2024/01/03 03:33:04;;;;;;;;;;;6.80;99.90;;;;;;5119464;28;19911;-73
2024/01/03 03:35:29;;;;;;;;;;;6.80;99.90;;;;;;5118116;28;19908;-73
2024/01/03 03:37:56;;;;;;;;;;;6.80;99.90;;;;;;5118890;28;19912;-73
2024/01/03 03:40:23;;;;;;;;;;;6.70;99.90;;;;;;5118124;28;19908;-73
2024/01/03 03:42:48;;;;;;;;;;;6.60;99.90;;;;;;5117692;28;19903;-73
2024/01/03 03:45:14;;;;;;;;;;;6.60;99.90;;;;;;5118221;28;19907;-73
2024/01/03 03:47:39;;;;;;;;;;;6.60;99.90;;;;;;5116140;28;19904;-73
2024/01/03 03:50:05;;;;;;;;;;;6.50;99.90;;;;;;5119528;28;19991;-73
2024/01/03 03:52:31;;;;;;;;;;;6.50;99.90;;;;;;5117129;28;19919;-73
2024/01/03 03:54:56;;;;;;;;;;;6.50;99.90;;;;;;5119072;27;19908;-73
2024/01/03 03:57:22;;;;;;;;;;;6.50;99.90;;;;;;5119165;28;19911;-73
2024/01/03 03:59:47;;;;;;;;;;;6.50;99.90;;;;;;5117514;28;19911;-73
2024/01/03 04:02:13;;;;;;;;;;;6.50;99.90;;;;;;5105203;28;19920;-73
2024/01/03 04:04:38;;;;;;;;;;;6.50;99.90;;;;;;5110069;28;19908;-74
2024/01/03 04:07:04;;;;;;;;;;;6.60;99.90;;;;;;5109371;28;19904;-73
2024/01/03 04:09:29;;;;;;;;;;;6.60;99.90;;;;;;5118329;28;19908;-73
2024/01/03 04:11:55;;;;;;;;;;;6.60;99.90;;;;;;5118716;28;19942;-74
2024/01/03 04:14:21;;;;;;;;;;;6.60;99.90;;;;;;5118367;28;19943;-73
2024/01/03 04:16:46;;;;;;;;;;;6.60;99.90;;;;;;5113563;28;19903;-74
2024/01/03 04:19:11;;;;;;;;;;;6.60;99.90;;;;;;5118338;28;19951;-73
2024/01/03 04:21:37;;;;;;;;;;;6.60;99.90;;;;;;5118379;28;19982;-73
2024/01/03 04:24:03;;;;;;;;;;;6.60;99.90;;;;;;5116949;28;20295;-73
2024/01/03 04:26:28;;;;;;;;;;;6.60;99.90;;;;;;5118629;28;19915;-73
2024/01/03 04:28:54;;;;;;;;;;;6.70;99.90;;;;;;5117016;28;19908;-73
2024/01/03 04:31:19;;;;;;;;;;;6.70;99.90;;;;;;5117141;28;19943;-73
2024/01/03 04:33:45;;;;;;;;;;;6.70;99.90;;;;;;5118568;28;19947;-73
2024/01/03 04:36:11;;;;;;;;;;;6.70;99.90;;;;;;5117253;28;19911;-73
2024/01/03 04:38:36;;;;;;;;;;;6.70;99.90;;;;;;5116479;28;19919;-72
2024/01/03 04:41:02;;;;;;;;;;;6.70;99.90;;;;;;5118056;28;20014;-72
2024/01/03 04:43:28;;;;;;;;;;;6.70;99.90;;;;;;5118372;28;20372;-72
2024/01/03 04:45:54;;;;;;;;;;;6.70;99.90;;;;;;5114234;28;19911;-72
2024/01/03 04:48:20;;;;;;;;;;;6.70;99.90;;;;;;5116873;28;19965;-72
2024/01/03 04:50:46;;;;;;;;;;;6.70;99.90;;;;;;5117747;28;19925;-72
2024/01/03 04:53:11;;;;;;;;;;;6.70;99.90;;;;;;5117611;28;20371;-72
2024/01/03 04:55:37;;;;;;;;;;;6.70;99.90;;;;;;5117280;28;19926;-72
2024/01/03 04:58:02;;;;;;;;;;;6.70;99.90;;;;;;5118003;28;19903;-72
2024/01/03 05:00:28;;;;;;;;;;;6.80;99.90;;;;;;5115964;28;19908;-72
2024/01/03 05:02:54;;;;;;;;;;;6.80;99.90;;;;;;5116610;28;20379;-72
2024/01/03 05:05:19;;;;;;;;;;;6.90;99.90;;;;;;5115991;28;20682;-72
2024/01/03 05:07:45;;;;;;;;;;;6.90;99.90;;;;;;5117513;28;19915;-72
2024/01/03 05:10:10;;;;;;;;;;;7.00;99.90;;;;;;5115917;28;19908;-72
2024/01/03 05:12:36;;;;;;;;;;;7.00;99.90;;;;;;5117922;28;19907;-72
2024/01/03 05:15:05;;;;;;;;;;;7.00;99.90;;;;;;5117044;28;20314;-72
2024/01/03 05:17:31;;;;;;;;;;;7.00;99.90;;;;;;5117599;28;19907;-72
2024/01/03 05:19:57;;;;;;;;;;;7.00;99.90;;;;;;5103866;28;19916;-72
2024/01/03 05:22:23;;;;;;;;;;;7.00;99.90;;;;;;5117067;28;19911;-72
2024/01/03 05:24:48;;;;;;;;;;;7.00;99.90;;;;;;5116891;28;19904;-72
2024/01/03 05:27:14;;;;;;;;;;;6.90;99.90;;;;;;5117628;28;19904;-72
2024/01/03 05:29:40;;;;;;;;;;;6.90;99.90;;;;;;5116983;28;19904;-72
2024/01/03 05:32:05;;;;;;;;;;;6.90;99.90;;;;;;5117443;28;19946;-72
2024/01/03 05:34:31;;;;;;;;;;;6.80;99.90;;;;;;5115681;28;19998;-72
2024/01/03 05:36:56;;;;;;;;;;;6.80;99.90;;;;;;5115944;28;19940;-72
2024/01/03 05:39:22;;;;;;;;;;;6.80;99.90;;;;;;5115501;28;19912;-72
2024/01/03 05:41:48;;;;;;;;;;;6.80;99.90;;;;;;5115807;28;19911;-73
2024/01/03 05:44:13;;;;;;;;;;;6.80;99.90;;;;;;5116847;28;19914;-73
2024/01/03 05:46:39;;;;;;;;;;;6.80;99.90;;;;;;5113073;28;19903;-73
2024/01/03 05:49:05;;;;;;;;;;;6.80;99.90;;;;;;5116789;28;19967;-73
2024/01/03 05:51:31;;;;;;;;;;;6.70;99.90;;;;;;5116684;28;19943;-72
2024/01/03 05:53:56;;;;;;;;;;;6.70;99.90;;;;;;5116299;28;19918;-73
2024/01/03 05:56:22;;;;;;;;;;;6.60;99.90;;;;;;5116944;27;19927;-73
2024/01/03 05:58:47;;;;;;;;;;;6.60;99.90;;;;;;5116530;28;19912;-72
2024/01/03 06:01:13;;;;;;;;;;;6.60;99.90;;;;;;5116975;28;19904;-73
2024/01/03 06:03:38;;;;;;;;;;;6.60;99.90;;;;;;5115112;28;19903;-73
2024/01/03 06:06:04;;;;;;;;;;;6.60;99.90;;;;;;5115586;28;20014;-73
2024/01/03 06:08:29;;;;;;;;;;;6.60;99.90;;;;;;5115727;28;19904;-73
2024/01/03 06:10:55;;;;;;;;;;;6.70;99.90;;;;;;5116553;28;19915;-72
2024/01/03 06:13:21;;;;;;;;;;;6.70;99.90;;;;;;5116459;28;19907;-73
2024/01/03 06:15:47;;;;;;;;;;;6.80;99.90;;;;;;5115268;28;19903;-73
2024/01/03 06:18:13;;;;;;;;;;;6.80;99.90;;;;;;5115237;28;19976;-72
2024/01/03 06:20:39;;;;;;;;;;;6.80;99.90;;;;;;5116703;28;19915;-73
2024/01/03 06:23:04;;;;;;;;;;;6.90;99.90;;;;;;5114699;28;20364;-72
2024/01/03 06:25:33;;;;;;;;;;;6.90;99.90;;;;;;5114944;28;19911;-72
2024/01/03 06:27:58;;;;;;;;;;;7.00;99.90;;;;;;5114988;28;19947;-73
2024/01/03 06:30:24;;;;;;;;;;;7.00;99.90;;;;;;5115347;28;19903;-73
2024/01/03 06:32:49;;;;;;;;;;;7.10;99.90;;;;;;5116194;28;19904;-72
2024/01/03 06:35:15;;;;;;;;;;;7.10;99.90;;;;;;5116497;28;19911;-73
2024/01/03 06:37:41;;;;;;;;;;;7.10;99.90;;;;;;5115389;28;19903;-73
2024/01/03 06:40:06;;;;;;;;;;;7.20;99.90;;;;;;5116562;28;19979;-72
2024/01/03 06:42:32;;;;;;;;;;;7.20;99.90;;;;;;5111830;28;19908;-73
2024/01/03 06:44:57;;;;;;;;;;;7.30;99.90;;;;;;5095349;28;19904;-72
2024/01/03 06:47:23;;;;;;;;;;;7.30;99.90;;;;;;5111654;28;19914;-73
2024/01/03 06:49:48;;;;;;;;;;;7.30;99.90;;;;;;5093343;28;19965;-73
2024/01/03 06:52:14;;;;;;;;;;;7.30;99.90;;;;;;5091222;28;20447;-73
2024/01/03 06:54:40;;;;;;;;;;;7.40;99.90;;;;;;5091165;28;19908;-72
2024/01/03 06:57:05;;;;;;;;;;;7.40;99.90;;;;;;5094929;28;19915;-73
2024/01/03 06:59:37;;;;;;;;;;;7.40;99.90;;;;;;5095185;28;19914;-73
2024/01/03 07:02:03;;;;;;;;;;;7.50;99.90;;;;;;5095359;28;19991;-73
2024/01/03 07:04:28;;;;;;;;;;;7.50;99.90;;;;;;5095309;28;19940;-73
2024/01/03 07:06:54;;;;;;;;;;;7.50;99.90;;;;;;5095083;28;19914;-73
2024/01/03 07:09:20;;;;;;;;;;;7.50;99.90;;;;;;5093433;28;19908;-72
2024/01/03 07:11:45;;;;;;;;;;;7.60;99.90;;;;;;5093531;28;19912;-73
2024/01/03 07:14:13;;;;;;;;;;;7.60;99.90;;;;;;5094977;28;19907;-72
2024/01/03 07:16:39;;;;;;;;;;;7.60;99.90;;;;;;5099096;28;19908;-73
2024/01/03 07:19:05;;;;;;;;;;;7.70;99.90;;;;;;5094870;28;19912;-73
2024/01/03 07:21:30;;;;;;;;;;;7.70;99.90;;;;;;5094890;28;19915;-73
2024/01/03 07:23:56;;;;;;;;;;;7.70;99.90;;;;;;5101314;28;19907;-72
2024/01/03 07:26:21;;;;;;;;;;;7.70;99.90;;;;;;5099970;28;20002;-73
2024/01/03 07:28:47;;;;;;;;;;;7.70;99.90;;;;;;5099379;28;19916;-73
2024/01/03 07:31:12;;;;;;;;;;;7.80;99.90;;;;;;5098474;28;20395;-73
2024/01/03 07:33:40;;;;;;;;;;;7.80;99.90;;;;;;5093252;28;19947;-73
2024/01/03 07:36:06;;;;;;;;;;;7.80;99.90;;;;;;5105181;28;20436;-73
2024/01/03 07:38:31;;;;;;;;;;;7.90;99.90;;;;;;5094250;28;20363;-73
2024/01/03 07:40:58;;;;;;;;;;;7.90;99.90;;;;;;5093073;28;19907;-74
2024/01/03 07:43:23;;;;;;;;;;;7.90;99.90;;;;;;5094645;28;19914;-74
2024/01/03 07:45:49;;;;;;;;;;;7.90;99.90;;;;;;5094129;28;19963;-74
2024/01/03 07:48:14;;;;;;;;;;;7.90;99.90;;;;;;5097604;28;20444;-74
2024/01/03 07:50:41;;;;;;;;;;;7.90;99.90;;;;;;5092993;28;19908;-74
2024/01/03 07:53:07;;;;;;;;;;;7.90;99.90;;;;;;5092638;28;19904;-74
2024/01/03 07:55:32;;;;;;;;;;;8.00;99.90;;;;;;5094429;28;19916;-75
2024/01/03 07:57:58;;;;;;;;;;;8.00;99.90;;;;;;5094058;28;20455;-74
2024/01/03 08:00:23;;;;;;;;;;;8.00;99.90;;;;;;5099810;28;19919;-74
2024/01/03 08:02:49;;;;;;;;;;;8.10;99.90;;;;;;5094669;28;19904;-74
2024/01/03 08:05:14;;;;;;;;;;;8.10;99.90;;;;;;5106481;28;19908;-75
2024/01/03 08:07:40;;;;;;;;;;;8.10;99.90;;;;;;5094115;28;21116;-75
2024/01/03 08:10:06;;;;;;;;;;;8.10;99.90;;;;;;5100056;28;19912;-75
2024/01/03 08:12:33;;;;;;;;;;;8.20;99.90;;;;;;5091662;28;19908;-75
2024/01/03 08:14:58;;;;;;;;;;;8.20;99.90;;;;;;5102799;28;19962;-75
2024/01/03 08:17:24;;;;;;;;;;;8.30;99.90;;;;;;5102890;28;19904;-75
2024/01/03 08:19:49;;;;;;;;;;;8.30;99.90;;;;;;5108602;28;19915;-75
2024/01/03 08:22:15;;;;;;;;;;;8.30;99.90;;;;;;5098456;28;19908;-75
2024/01/03 08:24:40;;;;;;;;;;;8.30;99.90;;;;;;5103338;28;19904;-75
2024/01/03 08:27:06;;;;;;;;;;;8.30;99.90;;;;;;5093779;28;20373;-75
2024/01/03 08:29:36;;;;;;;;;;;8.40;99.90;;;;;;5106659;28;19930;-75
2024/01/03 08:32:02;;;;;;;;;;;8.40;99.90;;;;;;5101345;28;19912;-75
2024/01/03 08:34:27;;;;;;;;;;;8.40;99.90;;;;;;5108731;28;19918;-75
2024/01/03 08:36:53;;;;;;;;;;;8.40;99.90;;;;;;5109035;28;20378;-75
2024/01/03 08:39:19;;;;;;;;;;;8.40;99.90;;;;;;5108257;28;19908;-75
2024/01/03 08:41:47;;;;;;;;;;;8.40;99.90;;;;;;5106037;28;20360;-75
2024/01/03 08:44:13;;;;;;;;;;;8.40;99.90;;;;;;5109741;28;19914;-74
2024/01/03 08:46:39;;;;;;;;;;;8.40;99.90;;;;;;5109260;28;19908;-74
2024/01/03 08:49:05;;;;;;;;;;;8.40;99.90;;;;;;5107791;28;19914;-75
2024/01/03 08:51:31;;;;;;;;;;;8.40;99.90;;;;;;5107484;28;19990;-75
2024/01/03 08:53:57;;;;;;;;;;;8.40;99.90;;;;;;5105437;28;19911;-75
2024/01/03 08:56:23;;;;;;;;;;;8.40;99.90;;;;;;5104913;28;19919;-75
2024/01/03 08:58:49;;;;;;;;;;;8.40;99.90;;;;;;5108038;28;20027;-75
2024/01/03 09:01:18;;;;;;;;;;;8.40;99.90;;;;;;5109679;28;19915;-75
2024/01/03 09:03:44;;;;;;;;;;;8.40;99.90;;;;;;5102365;28;20407;-75
2024/01/03 09:06:11;;;;;;;;;;;8.40;99.90;;;;;;5101998;28;19965;-75
2024/01/03 09:08:37;;;;;;;;;;;8.50;99.90;;;;;;5104379;28;20706;-75
2024/01/03 09:11:12;;;;;;;;;;;8.50;99.90;;;;;;5108572;28;19912;-75
2024/01/03 09:13:38;;;;;;;;;;;8.50;99.90;;;;;;5106331;28;19912;-75
2024/01/03 09:16:07;;;;;;;;;;;8.60;99.90;;;;;;5107697;28;20372;-76
2024/01/03 09:18:32;;;;;;;;;;;8.70;99.90;;;;;;5100916;28;19947;-76
2024/01/03 09:20:58;;;;;;;;;;;8.70;99.90;;;;;;5108869;28;19951;-75
2024/01/03 09:23:24;;;;;;;;;;;8.80;99.90;;;;;;5105410;28;20358;-75
2024/01/03 09:25:50;;;;;;;;;;;8.80;99.90;;;;;;5107379;28;19951;-75
2024/01/03 09:28:16;;;;;;;;;;;8.80;99.90;;;;;;5106944;28;19903;-75
2024/01/03 09:30:42;;;;;;;;;;;8.80;99.90;;;;;;5102835;28;19907;-75
2024/01/03 09:33:07;;;;;;;;;;;8.80;99.90;;;;;;5108670;28;19922;-75
2024/01/03 09:35:33;;;;;;;;;;;8.80;99.90;;;;;;5110646;28;19950;-75
2024/01/03 09:37:58;;;;;;;;;;;8.80;99.90;;;;;;5100820;28;20008;-76
2024/01/03 09:40:24;;;;;;;;;;;8.80;99.90;;;;;;5109822;28;20010;-77
2024/01/03 09:42:49;;;;;;;;;;;8.90;99.90;;;;;;5110490;28;19904;-75
2024/01/03 09:45:15;;;;;;;;;;;8.90;99.90;;;;;;5110822;28;19910;-75
2024/01/03 09:47:42;;;;;;;;;;;8.90;99.90;;;;;;5112270;28;19911;-75
2024/01/03 09:50:08;;;;;;;;;;;9.00;99.90;;;;;;5116248;27;19911;-75
2024/01/03 09:52:34;;;;;;;;;;;9.10;99.90;;;;;;5114115;28;19908;-74
2024/01/03 09:54:59;;;;;;;;;;;9.10;99.90;;;;;;5115955;28;19912;-74
2024/01/03 09:57:26;;;;;;;;;;;9.20;99.90;;;;;;5112373;28;19979;-74
2024/01/03 09:59:54;;;;;;;;;;;9.30;99.90;;;;;;5112974;28;19908;-73
2024/01/03 10:02:25;;;;;;;;;;;9.30;99.90;;;;;;5114344;28;19924;-75
2024/01/03 10:04:51;;;;;;;;;;;9.40;99.90;;;;;;5112083;28;19904;-75
2024/01/03 10:07:16;;;;;;;;;;;9.40;99.90;;;;;;5111638;28;19915;-75
2024/01/03 10:09:44;;;;;;;;;;;9.40;99.90;;;;;;5114137;28;19903;-75
2024/01/03 10:12:17;;;;;;;;;;;9.50;99.90;;;;;;5104773;28;19912;-75
2024/01/03 10:14:43;;;;;;;;;;;9.60;99.90;;;;;;5112557;28;19908;-75
2024/01/03 10:17:09;;;;;;;;;;;9.60;99.90;;;;;;5112776;28;19911;-75
2024/01/03 10:19:35;;;;;;;;;;;9.60;99.90;;;;;;5110280;28;19922;-75
2024/01/03 10:22:02;;;;;;;;;;;9.60;99.90;;;;;;5108393;28;19928;-75
2024/01/03 10:24:28;;;;;;;;;;;9.60;99.90;;;;;;5114030;28;19903;-75
2024/01/03 10:26:54;;;;;;;;;;;9.60;99.90;;;;;;5109647;28;19953;-75
2024/01/03 10:29:20;;;;;;;;;;;9.60;99.90;;;;;;5110840;28;19908;-75
2024/01/03 10:31:46;;;;;;;;;;;9.60;99.90;;;;;;5110978;28;19908;-75
2024/01/03 10:34:16;;;;;;;;;;;9.60;99.90;;;;;;5110358;28;19908;-75
2024/01/03 10:36:45;;;;;;;;;;;9.60;99.90;;;;;;5113219;28;20360;-75
2024/01/03 10:39:14;;;;;;;;;;;9.60;99.90;;;;;;5109931;28;19933;-74
2024/01/03 10:41:41;;;;;;;;;;;9.60;99.90;;;;;;5113199;28;19973;-74
2024/01/03 10:44:08;;;;;;;;;;;9.60;99.90;;;;;;5113002;28;19904;-75
2024/01/03 10:46:34;;;;;;;;;;;9.70;99.90;;;;;;5112879;28;20279;-75
2024/01/03 10:49:01;;;;;;;;;;;9.80;99.90;;;;;;5113478;28;20601;-74
2024/01/03 10:51:30;;;;;;;;;;;9.90;99.90;;;;;;5110524;28;19972;-74
2024/01/03 10:53:58;;;;;;;;;;;10.00;99.90;;;;;;5112334;28;19971;-75
2024/01/03 10:56:24;;;;;;;;;;;10.20;99.90;;;;;;5114315;28;19934;-75
2024/01/03 10:58:50;;;;;;;;;;;10.30;99.90;;;;;;5107439;28;19919;-75
2024/01/03 11:01:18;;;;;;;;;;;10.40;99.90;;;;;;5112153;28;19972;-75
2024/01/03 11:03:59;;;;;;;;;;;10.40;99.90;;;;;;5113377;28;19910;-75
2024/01/03 11:06:29;;;;;;;;;;;10.50;99.90;;;;;;5110008;28;19954;-75
2024/01/03 11:08:58;;;;;;;;;;;10.50;99.90;;;;;;5096982;28;19946;-75
2024/01/03 11:11:37;;;;;;;;;;;10.60;99.90;;;;;;5101484;28;20388;-75
2024/01/03 11:14:23;;;;;;;;;;;10.80;99.90;;;;;;5103675;28;20003;-75
2024/01/03 11:16:49;;;;;;;;;;;10.90;99.90;;;;;;5101350;28;20386;-75
2024/01/03 11:19:25;;;;;;;;;;;11.20;99.90;;;;;;5108464;28;19919;-75
2024/01/03 11:21:51;;;;;;;;;;;11.30;99.90;;;;;;5108635;28;19950;-75
2024/01/03 11:24:19;;;;;;;;;;;11.60;99.90;;;;;;5109280;28;19915;-76
2024/01/03 11:26:58;;;;;;;;;;;11.70;99.90;;;;;;5102605;28;19903;-75
2024/01/03 11:29:43;;;;;;;;;;;11.70;99.90;;;;;;5103414;28;19987;-76
2024/01/03 11:32:09;;;;;;;;;;;11.80;99.90;;;;;;5104977;28;19908;-75
2024/01/03 11:34:38;;;;;;;;;;;11.90;99.90;;;;;;5101435;28;19908;-75
2024/01/03 11:37:24;;;;;;;;;;;11.90;99.90;;;;;;5108201;28;19914;-74
2024/01/03 11:39:51;;;;;;;;;;;12.00;99.90;;;;;;5100665;28;19912;-75
2024/01/03 11:42:18;;;;;;;;;;;12.10;99.90;;;;;;5101115;28;19923;-75
2024/01/03 11:44:44;;;;;;;;;;;12.10;99.90;;;;;;5105138;28;19904;-75
2024/01/03 11:47:11;;;;;;;;;;;12.20;99.90;;;;;;5107804;28;19915;-75
2024/01/03 11:49:37;;;;;;;;;;;12.50;99.90;;;;;;5106843;28;19915;-75
2024/01/03 11:52:02;;;;;;;;;;;12.70;99.90;;;;;;5110037;28;19904;-75
2024/01/03 11:54:28;;;;;;;;;;;13.00;99.90;;;;;;5102530;28;19908;-75
2024/01/03 11:56:56;;;;;;;;;;;13.10;99.90;;;;;;5108564;28;20006;-74
2024/01/03 11:59:24;;;;;;;;;;;13.10;99.90;;;;;;5109657;28;19996;-75
2024/01/03 12:01:56;;;;;;;;;;;13.00;99.90;;;;;;5110240;28;19908;-75
2024/01/03 12:04:22;;;;;;;;;;;13.00;99.90;;;;;;5105830;28;19943;-75
2024/01/03 12:06:48;;;;;;;;;;;13.00;99.90;;;;;;5108274;28;19912;-75
2024/01/03 12:09:14;;;;;;;;;;;12.80;99.90;;;;;;5110345;28;19908;-75
2024/01/03 12:11:39;;;;;;;;;;;12.70;99.90;;;;;;5105480;28;19908;-75
2024/01/03 12:14:05;;;;;;;;;;;12.60;99.90;;;;;;5102690;28;19907;-75
2024/01/03 12:16:31;;;;;;;;;;;12.60;99.90;;;;;;5106759;28;19957;-75
2024/01/03 12:18:56;;;;;;;;;;;12.50;99.90;;;;;;5107236;28;19915;-74
2024/01/03 12:21:22;;;;;;;;;;;12.50;99.90;;;;;;5107307;28;19919;-75
2024/01/03 12:23:54;;;;;;;;;;;12.50;99.90;;;;;;5108325;28;19984;-75
2024/01/03 12:26:20;;;;;;;;;;;12.40;99.90;;;;;;5108307;28;19994;-74
2024/01/03 12:28:46;;;;;;;;;;;12.40;99.90;;;;;;5105295;28;19903;-75
2024/01/03 12:31:17;;;;;;;;;;;12.40;99.90;;;;;;5109701;28;19907;-75
2024/01/03 12:33:43;;;;;;;;;;;12.50;99.90;;;;;;5103886;28;19915;-75
2024/01/03 12:36:08;;;;;;;;;;;12.40;99.90;;;;;;5105635;28;19904;-75
2024/01/03 12:38:34;;;;;;;;;;;12.50;99.90;;;;;;5108042;28;19907;-75
2024/01/03 12:40:59;;;;;;;;;;;12.50;99.90;;;;;;5107692;28;19912;-75
2024/01/03 12:43:25;;;;;;;;;;;12.60;99.90;;;;;;5105243;28;19908;-75
2024/01/03 12:45:51;;;;;;;;;;;12.70;99.90;;;;;;5103246;28;19908;-74
2024/01/03 12:48:16;;;;;;;;;;;12.70;99.90;;;;;;5102026;28;19915;-75
2024/01/03 12:50:43;;;;;;;;;;;12.80;99.90;;;;;;5110081;28;20021;-75
2024/01/03 12:53:08;;;;;;;;;;;13.00;99.90;;;;;;5106291;28;19947;-74
2024/01/03 12:55:34;;;;;;;;;;;13.20;99.90;;;;;;5105527;28;19949;-74
2024/01/03 12:57:59;;;;;;;;;;;13.30;99.90;;;;;;5107944;28;19933;-74
2024/01/03 13:00:25;;;;;;;;;;;13.40;99.90;;;;;;5104428;28;20657;-74
2024/01/03 13:02:50;;;;;;;;;;;13.50;99.90;;;;;;5109698;28;20379;-74
2024/01/03 13:05:16;;;;;;;;;;;13.40;99.90;;;;;;5106012;28;20115;-74
2024/01/03 13:07:41;;;;;;;;;;;13.40;99.90;;;;;;5105489;28;19915;-74
2024/01/03 13:10:07;;;;;;;;;;;13.40;99.90;;;;;;5104031;28;19915;-74
2024/01/03 13:12:33;;;;;;;;;;;13.40;99.90;;;;;;5105256;28;19904;-75
2024/01/03 13:14:58;;;;;;;;;;;13.40;99.90;;;;;;5106893;28;19912;-75
2024/01/03 13:17:25;;;;;;;;;;;13.30;99.90;;;;;;5106145;28;19908;-75
2024/01/03 13:19:51;;;;;;;;;;;13.20;99.90;;;;;;5103005;28;19912;-74
2024/01/03 13:22:17;;;;;;;;;;;13.20;99.90;;;;;;5107383;28;19982;-74
2024/01/03 13:24:43;;;;;;;;;;;13.20;99.90;;;;;;5105360;28;19958;-74
2024/01/03 13:27:08;;;;;;;;;;;13.20;99.90;;;;;;5102269;28;19908;-74
2024/01/03 13:29:34;;;;;;;;;;;13.20;99.90;;;;;;5108253;28;19911;-73
2024/01/03 13:32:00;;;;;;;;;;;13.20;99.90;;;;;;5113103;28;19903;-74
2024/01/03 13:34:25;;;;;;;;;;;13.10;99.90;;;;;;5102044;28;19919;-74
2024/01/03 13:36:51;;;;;;;;;;;13.10;99.90;;;;;;5106875;28;19911;-74
2024/01/03 13:39:16;;;;;;;;;;;13.10;99.90;;;;;;5109811;28;20409;-74
2024/01/03 13:41:42;;;;;;;;;;;13.10;99.90;;;;;;5109416;28;19904;-74
2024/01/03 13:44:07;;;;;;;;;;;13.00;99.90;;;;;;5112491;28;20564;-74
2024/01/03 13:46:35;;;;;;;;;;;12.90;99.90;;;;;;5112061;28;19910;-74
2024/01/03 13:49:01;;;;;;;;;;;12.80;99.90;;;;;;5111637;28;19907;-73
2024/01/03 13:51:26;;;;;;;;;;;12.80;99.90;;;;;;5114507;28;19908;-74
2024/01/03 13:53:56;;;;;;;;;;;12.70;99.90;;;;;;5111574;28;19917;-74
2024/01/03 13:56:22;;;;;;;;;;;12.70;99.90;;;;;;5114424;28;19916;-74
2024/01/03 13:58:48;;;;;;;;;;;12.70;99.90;;;;;;5112899;28;19903;-74
2024/01/03 14:01:14;;;;;;;;;;;12.70;99.90;;;;;;5109939;28;20040;-74
2024/01/03 14:03:40;;;;;;;;;;;12.70;99.90;;;;;;5111813;28;20049;-74
2024/01/03 14:06:08;;;;;;;;;;;12.70;99.90;;;;;;5107495;28;19941;-74
2024/01/03 14:08:33;;;;;;;;;;;12.80;99.90;;;;;;5109743;28;19914;-74
2024/01/03 14:11:01;;;;;;;;;;;12.70;99.90;;;;;;5109275;28;19955;-74
2024/01/03 14:13:27;;;;;;;;;;;12.70;99.90;;;;;;5109176;28;19965;-74
2024/01/03 14:15:52;;;;;;;;;;;12.70;99.90;;;;;;5111047;28;20280;-73
2024/01/03 14:18:18;;;;;;;;;;;12.70;99.90;;;;;;5112727;28;19914;-74
2024/01/03 14:20:43;;;;;;;;;;;12.70;99.90;;;;;;5109329;28;19946;-77